Time;durP1;ratioP1;P1;durP2;ratioP2;P2;SDS_P1;SDS_P2;PMS_P1;PMS_P2;Temp;Humidity;BMP_temperature;BMP_pressure;BME280_temperature;BME280_humidity;BME280_pressure;Samples;Min_cycle;Max_cycle;Signal;HPM_P1;HPM_P2
2021/06/24 00:06:03;;;;;;;76.67;13.90;;;;;;;21.22;84.62;100280.98;1755999;81;21022;-78
2021/06/24 00:08:28;;;;;;;80.47;13.93;;;;;;;21.10;85.07;100285.00;1756141;81;21486;-81
2021/06/24 00:12:54;;;;;;;85.92;14.68;;;;;;;21.04;85.11;100266.73;1795199;79;22572;-80
2021/06/24 00:16:17;;;;;;;78.97;13.83;;;;;;;20.98;85.13;100271.25;1755879;81;21072;-81
2021/06/24 00:18:44;;;;;;;91.42;15.05;;;;;;;20.97;84.99;100262.83;1756076;81;21108;-80
2021/06/24 00:21:11;;;;;;;87.90;14.38;;;;;;;20.98;84.46;100268.57;1755536;81;21029;-80
2021/06/24 00:23:38;;;;;;;77.03;12.70;;;;;;;20.98;84.18;100264.55;1755944;81;21061;-81
2021/06/24 00:26:05;;;;;;;40.15;8.28;;;;;;;20.97;84.07;100265.50;1754949;81;21022;-81
2021/06/24 00:28:33;;;;;;;56.88;9.28;;;;;;;20.98;83.82;100273.92;1750016;82;21735;-79
2021/06/24 00:31:00;;;;;;;77.35;12.65;;;;;;;20.97;83.76;100272.20;1749885;82;21169;-81
2021/06/24 00:33:27;;;;;;;70.70;12.70;;;;;;;20.95;83.80;100272.80;1750085;82;21044;-79
2021/06/24 00:35:55;;;;;;;75.28;13.35;;;;;;;20.94;83.57;100275.13;1750083;82;21541;-81
2021/06/24 00:38:21;;;;;;;89.70;13.95;;;;;;;20.93;83.63;100273.41;1750014;82;21151;-81
2021/06/24 00:40:50;;;;;;;75.10;12.95;;;;;;;20.93;83.62;100278.76;1732015;82;21249;-79
2021/06/24 00:43:19;;;;;;;80.12;15.43;;;;;;;20.91;83.44;100278.02;1720777;83;21107;-81
2021/06/24 00:45:46;;;;;;;96.97;19.62;;;;;;;20.89;83.51;100275.95;1725775;82;21083;-80
2021/06/24 00:48:16;;;;;;;134.97;35.80;;;;;;;20.88;83.55;100270.24;1725878;82;21104;-76
2021/06/24 00:50:45;;;;;;;161.30;52.60;;;;;;;20.88;83.43;100269.75;1725516;82;28335;-76
2021/06/24 00:53:12;;;;;;;119.47;35.15;;;;;;;20.87;83.59;100269.89;1725537;83;21651;-76
2021/06/24 00:55:46;;;;;;;122.00;33.83;;;;;;;20.83;83.71;100265.25;1724947;83;21145;-74
2021/06/24 00:58:20;;;;;;;134.00;36.63;;;;;;;20.80;83.79;100267.30;1725134;82;20997;-76
2021/06/24 01:00:50;;;;;;;106.32;31.52;;;;;;;20.76;84.01;100271.20;1725780;83;21121;-79
2021/06/24 01:03:19;;;;;;;91.73;22.03;;;;;;;20.70;84.35;100268.50;1726223;83;21065;-77
2021/06/24 01:05:47;;;;;;;58.05;14.80;;;;;;;20.65;84.51;100264.84;1725880;82;21088;-77
2021/06/24 01:08:16;;;;;;;107.15;21.57;;;;;;;20.59;84.59;100257.30;1725834;83;21088;-78
2021/06/24 01:10:46;;;;;;;65.57;14.43;;;;;;;20.59;84.67;100269.80;1725653;83;21004;-79
2021/06/24 01:13:13;;;;;;;93.45;19.32;;;;;;;20.56;84.73;100266.00;1706926;83;21128;-78
2021/06/24 01:15:40;;;;;;;78.85;16.23;;;;;;;20.52;84.73;100262.70;1725625;83;21029;-78
2021/06/24 01:18:08;;;;;;;72.35;15.95;;;;;;;20.50;84.73;100260.66;1725538;83;21037;-80
2021/06/24 01:20:36;;;;;;;89.75;15.40;;;;;;;20.46;84.81;100257.84;1726137;82;21150;-85
2021/06/24 01:23:05;;;;;;;63.92;13.50;;;;;;;20.45;85.01;100261.00;1725892;83;21037;-86
2021/06/24 01:25:34;;;;;;;87.95;13.50;;;;;;;20.43;85.05;100258.93;1725364;82;21069;-78
2021/06/24 01:28:07;;;;;;;69.05;13.40;;;;;;;20.42;85.26;100260.38;1719990;82;21069;-79
2021/06/24 01:30:37;;;;;;;68.22;13.98;;;;;;;20.40;85.21;100258.30;1719706;83;21041;-84
2021/06/24 01:33:05;;;;;;;69.35;11.30;;;;;;;20.42;85.16;100261.71;1725351;83;21084;-82
2021/06/24 01:35:32;;;;;;;71.87;12.98;;;;;;;20.41;85.07;100262.70;1725416;83;21037;-82
2021/06/24 01:38:06;;;;;;;64.12;10.75;;;;;;;20.40;85.03;100264.98;1725264;83;21528;-82
2021/06/24 01:40:34;;;;;;;42.65;9.45;;;;;;;20.36;85.00;100260.83;1725430;83;21536;-83
2021/06/24 01:43:01;;;;;;;48.15;9.08;;;;;;;20.35;84.87;100260.47;1692882;84;21096;-83
2021/06/24 01:45:29;;;;;;;68.55;11.00;;;;;;;20.33;84.93;100253.41;1692973;84;21963;-81
2021/06/24 01:47:56;;;;;;;50.10;8.98;;;;;;;20.36;85.01;100258.16;1663130;86;21057;-80
2021/06/24 01:50:23;;;;;;;66.57;10.28;;;;;;;20.39;84.92;100260.62;1679765;85;21109;-80
2021/06/24 01:52:51;;;;;;;59.03;11.68;;;;;;;20.41;84.70;100263.54;1680084;85;21605;-83
2021/06/24 01:55:31;;;;;;;70.15;11.65;;;;;;;20.41;84.72;100262.20;1690438;84;21057;-86
2021/06/24 01:57:55;;;;;;;62.00;10.95;;;;;;;20.42;84.57;100265.72;1691512;84;21118;-84
2021/06/24 02:00:24;;;;;;;52.65;11.83;;;;;;;20.42;84.60;100264.38;1637935;84;21045;-87
2021/06/24 02:02:52;;;;;;;66.50;11.28;;;;;;;20.39;84.71;100261.95;1690070;84;21078;-86
2021/06/24 02:05:21;;;;;;;57.38;11.15;;;;;;;20.37;84.86;100262.55;1690544;84;21073;-87
2021/06/24 02:07:48;;;;;;;61.37;12.95;;;;;;;20.31;85.20;100254.03;1691623;84;21562;-87
2021/06/24 02:10:21;;;;;;;50.03;10.65;;;;;;;20.29;85.27;100254.63;1691831;84;21517;-85
2021/06/24 02:12:53;;;;;;;37.05;8.38;;;;;;;20.24;85.55;100253.25;1682052;84;22090;-86
2021/06/24 02:15:22;;;;;;;42.17;9.58;;;;;;;20.20;85.84;100259.33;1680503;85;21036;-80
2021/06/24 02:17:51;;;;;;;47.98;8.75;;;;;;;20.18;86.07;100263.09;1713874;83;21058;-83
2021/06/24 02:20:19;;;;;;;39.00;7.42;;;;;;;20.15;86.10;100269.50;1712721;82;21038;-83
2021/06/24 02:22:51;;;;;;;38.30;8.03;;;;;;;20.13;86.35;100271.46;1712310;82;21120;-81
2021/06/24 02:25:20;;;;;;;37.40;8.68;;;;;;;20.11;86.45;100276.06;1712451;82;21038;-81
2021/06/24 02:28:05;;;;;;;62.65;11.63;;;;;;;20.11;86.60;100265.38;1706906;83;21035;-80
2021/06/24 02:30:51;;;;;;;52.45;11.65;;;;;;;20.10;86.73;100268.99;1706743;84;21221;-80
2021/06/24 02:33:19;;;;;;;65.78;11.28;;;;;;;20.12;86.70;100272.41;1686457;84;21054;-81
2021/06/24 02:35:54;;;;;;;70.70;11.45;;;;;;;20.14;86.51;100267.80;1706573;84;21107;-80
2021/06/24 02:38:22;;;;;;;43.30;8.73;;;;;;;20.20;86.37;100273.16;1686460;84;21065;-81
2021/06/24 02:40:51;;;;;;;47.38;8.53;;;;;;;20.21;85.95;100269.05;1705247;82;21141;-79
2021/06/24 02:43:19;;;;;;;52.58;9.05;;;;;;;20.31;85.60;100266.06;1706614;84;21154;-81
2021/06/24 02:45:46;;;;;;;40.88;8.13;;;;;;;20.42;85.23;100273.75;1686427;84;21125;-81
2021/06/24 02:48:15;;;;;;;48.02;9.65;;;;;;;20.51;84.73;100265.02;1710559;83;21117;-81
2021/06/24 02:50:43;;;;;;;53.78;8.63;;;;;;;20.63;84.18;100269.45;1712525;83;21023;-77
2021/06/24 02:53:10;;;;;;;32.95;6.35;;;;;;;20.74;83.64;100269.48;1712287;83;21072;-77
2021/06/24 02:55:40;;;;;;;54.90;9.98;;;;;;;20.86;83.15;100264.15;1712790;83;21572;-77
2021/06/24 02:58:07;;;;;;;56.15;11.35;;;;;;;20.98;82.56;100271.25;1702430;83;21333;-77
2021/06/24 03:00:51;;;;;;;59.03;10.43;;;;;;;21.10;81.86;100268.93;1696784;82;21142;-78
2021/06/24 03:03:19;;;;;;;62.90;9.80;;;;;;;21.23;80.97;100274.64;1702577;83;21671;-80
2021/06/24 03:05:48;;;;;;;60.85;10.32;;;;;;;21.36;80.05;100266.00;1703146;84;21065;-79
2021/06/24 03:08:16;;;;;;;44.23;8.88;;;;;;;21.49;79.02;100272.13;1704535;84;21568;-79
2021/06/24 03:10:57;;;;;;;48.15;10.03;;;;;;;21.65;78.31;100272.20;1704149;83;21105;-79
2021/06/24 03:13:25;;;;;;;58.98;10.25;;;;;;;21.82;77.62;100266.33;1705122;82;21572;-86
2021/06/24 03:15:53;;;;;;;47.48;8.23;;;;;;;21.99;76.83;100263.13;1705436;84;20999;-84
2021/06/24 03:18:21;;;;;;;40.10;7.47;;;;;;;22.17;75.85;100262.55;1705235;84;21376;-86
2021/06/24 03:20:48;;;;;;;42.85;7.55;;;;;;;22.35;75.10;100255.67;1705374;84;21086;-85
2021/06/24 03:23:16;;;;;;;43.15;8.15;;;;;;;22.53;74.29;100258.64;1704759;84;21631;-84
2021/06/24 03:25:44;;;;;;;44.03;6.75;;;;;;;22.73;73.15;100260.09;1705177;84;21111;-82
2021/06/24 03:28:12;;;;;;;48.45;8.15;;;;;;;22.91;72.24;100257.66;1707255;84;21049;-81
2021/06/24 03:30:42;;;;;;;45.35;8.48;;;;;;;23.09;71.38;100257.43;1707235;83;21096;-83
2021/06/24 03:33:11;;;;;;;66.10;9.93;;;;;;;23.27;70.42;100253.63;1708729;84;21072;-83
2021/06/24 03:35:37;;;;;;;58.80;9.35;;;;;;;23.48;69.23;100252.20;1709346;84;21076;-82
2021/06/24 03:38:05;;;;;;;70.97;10.00;;;;;;;23.69;68.13;100256.65;1708577;83;21097;-84
2021/06/24 03:40:32;;;;;;;80.62;10.20;;;;;;;23.87;66.94;100248.29;1709453;84;21065;-88
2021/06/24 03:43:01;;;;;;;66.85;11.28;;;;;;;24.07;65.45;100250.01;1708963;83;21088;-79
2021/06/24 03:45:28;;;;;;;53.65;9.18;;;;;;;24.27;64.75;100251.34;1708457;84;21017;-80
2021/06/24 03:47:55;;;;;;;66.65;9.23;;;;;;;24.46;64.24;100250.00;1708699;84;21591;-78
2021/06/24 03:50:23;;;;;;;71.00;10.28;;;;;;;24.66;63.56;100245.47;1708302;84;21081;-80
2021/06/24 03:52:51;;;;;;;60.50;9.40;;;;;;;24.87;61.12;100256.05;1708307;84;21449;-82
2021/06/24 03:55:34;;;;;;;87.17;10.80;;;;;;;25.03;59.81;100251.39;1708461;83;21098;-82
2021/06/24 03:57:47;;;;;;;74.10;10.20;;;;;;;25.19;59.21;100248.11;1709106;83;21037;-81
2021/06/24 04:00:17;;;;;;;72.12;10.55;;;;;;;25.35;58.65;100246.59;1708478;83;21064;-78
2021/06/24 04:02:47;;;;;;;74.17;10.08;;;;;;;25.48;58.59;100239.02;1708839;84;21864;-79
2021/06/24 04:05:16;;;;;;;71.30;9.30;;;;;;;25.61;58.13;100236.81;1708501;82;21584;-80
2021/06/24 04:07:45;;;;;;;69.25;9.15;;;;;;;25.74;57.16;100243.17;1708860;83;21030;-77
2021/06/24 04:10:13;;;;;;;79.45;9.95;;;;;;;25.85;57.24;100234.02;1708550;83;21066;-78
2021/06/24 04:12:41;;;;;;;66.47;10.18;;;;;;;25.96;56.65;100244.63;1707720;81;21537;-76
2021/06/24 04:15:12;;;;;;;70.60;9.93;;;;;;;26.08;56.82;100233.94;1711480;82;21296;-79
2021/06/24 04:17:41;;;;;;;64.75;9.20;;;;;;;26.20;56.38;100243.99;1711135;83;21038;-77
2021/06/24 04:20:09;;;;;;;75.85;9.58;;;;;;;26.30;56.03;100242.08;1673939;85;21085;-78
2021/06/24 04:22:38;;;;;;;60.60;9.35;;;;;;;26.39;55.83;100242.99;1677972;85;22044;-78
2021/06/24 04:25:12;;;;;;;71.20;11.95;;;;;;;26.48;55.20;100244.75;1661692;85;21042;-78
2021/06/24 04:27:39;;;;;;;63.40;9.78;;;;;;;26.58;54.94;100238.77;1668471;85;21799;-79
2021/06/24 04:30:09;;;;;;;72.75;10.05;;;;;;;26.79;54.98;100247.02;1677384;85;21014;-78
2021/06/24 04:32:38;;;;;;;86.02;9.63;;;;;;;27.00;53.48;100245.28;1671697;85;21113;-77
2021/06/24 04:35:08;;;;;;;68.57;9.88;;;;;;;27.19;53.03;100244.19;1666899;85;21085;-76
2021/06/24 04:37:36;;;;;;;66.67;10.13;;;;;;;27.46;52.59;100251.27;1667723;85;21155;-79
2021/06/24 04:40:06;;;;;;;64.75;9.65;;;;;;;27.69;51.47;100244.75;1675662;84;21101;-79
2021/06/24 04:42:35;;;;;;;58.40;9.58;;;;;;;27.91;50.41;100243.84;1671465;85;21081;-76
2021/06/24 04:45:13;;;;;;;55.83;9.18;;;;;;;28.07;49.94;100241.15;1666033;85;21069;-77
2021/06/24 04:47:49;;;;;;;47.20;8.95;;;;;;;28.27;50.16;100244.36;1671335;85;21042;-77
2021/06/24 04:50:16;;;;;;;63.70;10.70;;;;;;;28.40;48.43;100258.76;1668605;85;21601;-77
2021/06/24 04:52:45;;;;;;;59.40;10.08;;;;;;;28.52;48.84;100258.77;1663050;85;21859;-77
2021/06/24 04:55:14;;;;;;;64.75;9.05;;;;;;;28.71;47.81;100258.08;1666440;85;21311;-77
2021/06/24 04:57:42;;;;;;;60.38;8.63;;;;;;;28.91;47.66;100259.41;1709409;83;21124;-76
2021/06/24 05:00:27;;;;;;;70.00;9.90;;;;;;;29.07;47.44;100259.39;1704226;83;21058;-77
2021/06/24 05:03:13;;;;;;;64.42;9.75;;;;;;;29.22;46.55;100258.69;1705896;83;21568;-78
2021/06/24 05:05:47;;;;;;;70.28;9.53;;;;;;;29.41;46.88;100253.35;1694262;82;21177;-73
2021/06/24 05:08:16;;;;;;;62.30;8.65;;;;;;;29.63;45.87;100259.35;1707165;83;21062;-75
2021/06/24 05:10:45;;;;;;;75.03;9.70;;;;;;;29.82;44.85;100249.94;1706525;83;21108;-74
2021/06/24 05:13:12;;;;;;;76.45;9.38;;;;;;;29.92;43.83;100239.36;1714904;83;21119;-74
2021/06/24 05:15:43;;;;;;;68.87;9.05;;;;;;;30.02;44.00;100239.95;1712032;83;21069;-74
2021/06/24 05:18:13;;;;;;;65.37;9.68;;;;;;;30.18;43.73;100239.83;1714985;83;21236;-76
2021/06/24 05:20:42;;;;;;;56.45;9.13;;;;;;;30.35;42.69;100235.68;1716764;83;21490;-78
2021/06/24 05:23:09;;;;;;;60.60;8.75;;;;;;;30.50;42.37;100240.61;1719940;83;21572;-72
2021/06/24 05:25:37;;;;;;;60.28;8.68;;;;;;;30.55;42.20;100235.47;1701723;83;21049;-78
2021/06/24 05:28:04;;;;;;;58.08;9.03;;;;;;;30.60;42.31;100230.34;1719017;82;21493;-78
2021/06/24 05:30:31;;;;;;;63.02;8.28;;;;;;;30.69;41.56;100229.23;1719555;83;21184;-83
2021/06/24 05:32:58;;;;;;;66.87;8.00;;;;;;;30.79;41.91;100229.48;1719947;83;21587;-84
2021/06/24 05:35:27;;;;;;;55.43;8.73;;;;;;;30.91;41.96;100231.56;1720790;83;21007;-83
2021/06/24 05:37:54;;;;;;;47.98;7.05;;;;;;;31.09;41.72;100227.12;1720649;83;21173;-80
2021/06/24 05:40:22;;;;;;;59.33;8.03;;;;;;;31.31;40.93;100244.37;1720887;82;21618;-84
2021/06/24 05:42:50;;;;;;;46.25;7.45;;;;;;;31.50;41.19;100248.41;1720860;82;21077;-85
2021/06/24 05:45:19;;;;;;;55.00;7.72;;;;;;;31.90;38.41;100243.93;1721550;83;21010;-84
2021/06/24 05:47:47;;;;;;;51.88;6.97;;;;;;;31.90;38.41;100243.93;1720441;83;21073;-84
2021/06/24 05:50:15;;;;;;;58.02;7.20;;;;;;;31.94;38.09;100238.43;1717532;83;21104;-85
2021/06/24 05:52:42;;;;;;;49.15;6.58;;;;;;;32.02;38.26;100247.02;1716883;82;21073;-82
2021/06/24 05:55:11;;;;;;;55.23;7.28;;;;;;;32.07;38.35;100240.45;1704546;82;21047;-83
2021/06/24 05:57:38;;;;;;;48.80;7.50;;;;;;;32.17;37.91;100240.99;1719848;83;21504;-85
2021/06/24 06:00:06;;;;;;;54.42;6.80;;;;;;;32.29;38.15;100240.78;1720682;83;21038;-84
2021/06/24 06:02:35;;;;;;;48.30;7.67;;;;;;;32.44;37.73;100235.76;1718880;82;21615;-84
2021/06/24 06:05:02;;;;;;;59.08;7.90;;;;;;;32.60;37.32;100242.31;1712604;83;21033;-85
2021/06/24 06:07:31;;;;;;;45.33;7.10;;;;;;;32.76;36.65;100243.90;1717489;83;21154;-86
2021/06/24 06:09:59;;;;;;;58.13;7.85;;;;;;;32.86;37.23;100235.39;1720932;82;21085;-88
2021/06/24 06:12:28;;;;;;;39.83;7.65;;;;;;;33.10;37.50;100236.28;1721052;82;22076;-87
2021/06/24 06:14:55;;;;;;;52.98;7.42;;;;;;;33.32;37.04;100244.38;1738564;82;21005;-88
2021/06/24 06:17:22;;;;;;;54.53;7.33;;;;;;;33.38;36.41;100236.72;1724304;83;21584;-87
2021/06/24 06:19:49;;;;;;;74.92;8.40;;;;;;;33.38;36.95;100241.69;1724601;83;21171;-87
2021/06/24 06:22:17;;;;;;;57.00;7.05;;;;;;;33.38;37.29;100243.55;1724913;83;21565;-86
2021/06/24 06:24:44;;;;;;;48.63;6.90;;;;;;;33.40;37.12;100240.09;1725283;83;21478;-88
2021/06/24 06:27:11;;;;;;;39.42;6.55;;;;;;;33.38;35.85;100243.55;1723405;83;21060;-87
2021/06/24 06:29:38;;;;;;;57.45;7.75;;;;;;;33.21;36.53;100243.89;1692340;83;21131;-88
2021/06/24 06:32:06;;;;;;;39.53;6.47;;;;;;;33.02;37.07;100240.52;1664147;85;21211;-86
2021/06/24 06:34:34;;;;;;;41.18;7.33;;;;;;;32.85;37.32;100243.23;1674818;85;21075;-85
2021/06/24 06:37:01;;;;;;;69.95;18.75;;;;;;;32.68;37.69;100242.17;1692143;84;21112;-88
2021/06/24 06:39:28;;;;;;;73.72;17.75;;;;;;;32.57;37.93;100241.36;1674318;84;21078;-87
2021/06/24 06:41:55;;;;;;;46.75;10.20;;;;;;;32.45;38.48;100238.30;1675850;81;21040;-88
2021/06/24 06:44:22;;;;;;;52.67;9.93;;;;;;;32.27;38.67;100236.05;1666673;85;21151;-87
2021/06/24 06:46:50;;;;;;;53.55;9.33;;;;;;;32.15;39.05;100238.98;1668132;85;20967;-83
2021/06/24 06:49:20;;;;;;;47.30;9.15;;;;;;;32.05;39.02;100239.80;1686928;84;20973;-85
2021/06/24 06:51:47;;;;;;;67.30;8.25;;;;;;;32.00;39.31;100235.47;1651631;86;21003;-84
2021/06/24 06:54:14;;;;;;;44.65;6.75;;;;;;;32.03;40.09;100233.73;1697589;83;21056;-83
2021/06/24 06:56:45;;;;;;;56.60;7.90;;;;;;;32.11;39.64;100236.31;1673537;85;21484;-82
2021/06/24 06:59:10;;;;;;;57.83;7.62;;;;;;;32.04;40.36;100233.52;1667191;85;21034;-81
2021/06/24 07:01:37;;;;;;;49.27;8.05;;;;;;;31.95;40.24;100231.93;1673995;85;21015;-84
2021/06/24 07:04:05;;;;;;;54.55;7.97;;;;;;;31.89;40.86;100226.75;1671889;85;21070;-83
2021/06/24 07:06:33;;;;;;;56.55;7.58;;;;;;;31.90;41.13;100229.79;1671527;85;21097;-84
2021/06/24 07:09:03;;;;;;;42.30;6.80;;;;;;;31.93;40.78;100226.70;1684001;85;21085;-84
2021/06/24 07:11:31;;;;;;;50.23;8.83;;;;;;;32.01;40.63;100227.64;1685131;84;21635;-82
2021/06/24 07:13:59;;;;;;;44.08;7.37;;;;;;;31.97;40.22;100222.56;1667979;85;21059;-83
2021/06/24 07:16:26;;;;;;;59.85;7.65;;;;;;;31.97;40.65;100222.56;1717494;83;21271;-85
2021/06/24 07:18:53;;;;;;;47.10;6.60;;;;;;;32.04;41.22;100216.34;1711682;82;21015;-83
2021/06/24 07:21:21;;;;;;;54.77;6.97;;;;;;;32.14;41.22;100218.20;1713663;83;21097;-85
2021/06/24 07:23:48;;;;;;;53.50;7.55;;;;;;;32.31;40.22;100219.63;1712051;82;21096;-85
2021/06/24 07:26:16;;;;;;;61.55;8.05;;;;;;;32.53;40.75;100225.06;1715453;83;21109;-84
2021/06/24 07:28:43;;;;;;;43.33;6.58;;;;;;;32.88;40.29;100230.58;1715395;83;21010;-84
2021/06/24 07:31:12;;;;;;;49.10;7.75;;;;;;;33.19;39.35;100231.50;1710758;82;21111;-82
2021/06/24 07:33:39;;;;;;;43.68;7.47;;;;;;;33.49;38.59;100230.69;1711602;83;21110;-83
2021/06/24 07:36:07;;;;;;;39.92;7.25;;;;;;;33.85;38.20;100224.95;1708161;83;21117;-83
2021/06/24 07:38:34;;;;;;;46.92;6.85;;;;;;;34.35;37.28;100227.36;1712379;82;21030;-85
2021/06/24 07:41:02;;;;;;;39.53;6.85;;;;;;;34.81;36.40;100230.61;1717278;82;21074;-84
2021/06/24 07:43:30;;;;;;;42.33;7.92;;;;;;;35.11;35.83;100226.03;1713304;83;21540;-85
2021/06/24 07:45:57;;;;;;;53.95;7.75;;;;;;;35.32;36.39;100220.80;1718098;83;21101;-84
2021/06/24 07:48:24;;;;;;;39.23;6.75;;;;;;;35.76;35.13;100221.03;1717497;83;21045;-84
2021/06/24 07:50:50;;;;;;;39.08;6.40;;;;;;;36.27;34.54;100225.55;1714710;82;21513;-84
2021/06/24 07:53:18;;;;;;;33.90;6.90;;;;;;;36.53;33.08;100217.06;1714955;82;21620;-82
2021/06/24 07:55:47;;;;;;;56.68;20.65;;;;;;;36.78;33.28;100223.63;1713827;82;21022;-82
2021/06/24 07:58:15;;;;;;;46.88;13.28;;;;;;;36.93;32.33;100223.57;1713141;83;21142;-83
2021/06/24 08:00:42;;;;;;;36.30;7.10;;;;;;;37.01;31.29;100224.33;1715575;83;21026;-81
2021/06/24 08:03:09;;;;;;;46.05;12.98;;;;;;;37.03;30.81;100223.58;1715383;83;21033;-83
2021/06/24 08:05:36;;;;;;;58.10;13.75;;;;;;;37.08;31.21;100227.87;1716029;83;21165;-84
2021/06/24 08:08:03;;;;;;;52.27;7.87;;;;;;;37.34;30.79;100226.70;1715935;83;21033;-83
2021/06/24 08:10:30;;;;;;;50.88;6.92;;;;;;;37.65;29.04;100224.32;1680138;85;21548;-83
2021/06/24 08:12:57;;;;;;;41.10;9.40;;;;;;;38.07;28.70;100222.14;1680473;85;21061;-82
2021/06/24 08:15:27;;;;;;;36.88;6.10;;;;;;;38.41;27.62;100223.27;1710982;82;21097;-85
2021/06/24 08:17:55;;;;;;;35.88;5.37;;;;;;;38.73;26.79;100211.95;1706955;83;21069;-82
2021/06/24 08:20:23;;;;;;;42.98;5.53;;;;;;;38.66;26.32;100215.36;1711243;83;21094;-83
2021/06/24 08:22:50;;;;;;;36.50;5.67;;;;;;;38.31;26.55;100221.66;1710714;83;21201;-81
2021/06/24 08:25:18;;;;;;;35.48;5.33;;;;;;;38.01;27.87;100219.81;1710161;83;21647;-83
2021/06/24 08:27:44;;;;;;;31.48;5.60;;;;;;;37.71;27.48;100220.65;1709429;83;21030;-82
2021/06/24 08:30:14;;;;;;;28.12;5.00;;;;;;;37.48;28.26;100217.75;1676452;85;21304;-83
2021/06/24 08:32:41;;;;;;;46.25;5.22;;;;;;;37.34;28.70;100219.33;1711362;83;21565;-83
2021/06/24 08:35:10;;;;;;;32.75;5.72;;;;;;;37.37;28.16;100220.22;1711281;83;21164;-83
2021/06/24 08:37:38;;;;;;;35.28;5.28;;;;;;;37.51;28.24;100216.77;1712840;82;21133;-82
2021/06/24 08:40:08;;;;;;;20.60;4.25;;;;;;;37.60;27.68;100215.11;1712069;83;21248;-84
2021/06/24 08:42:35;;;;;;;37.80;5.67;;;;;;;37.49;27.04;100222.19;1709840;82;21076;-83
2021/06/24 08:45:04;;;;;;;40.00;8.68;;;;;;;37.37;27.16;100214.73;1712781;83;21094;-84
2021/06/24 08:47:31;;;;;;;33.83;5.33;;;;;;;37.26;26.44;100221.00;1711595;83;21107;-84
2021/06/24 08:49:59;;;;;;;34.23;4.60;;;;;;;37.25;27.33;100219.33;1712781;83;21026;-84
2021/06/24 08:52:27;;;;;;;41.65;6.75;;;;;;;37.15;28.33;100219.02;1712841;82;21026;-83
2021/06/24 08:54:54;;;;;;;37.95;6.67;;;;;;;37.01;28.84;100217.47;1711512;83;21041;-83
2021/06/24 08:57:21;;;;;;;34.78;4.47;;;;;;;36.90;29.60;100219.06;1713082;83;21631;-85
2021/06/24 08:59:49;;;;;;;31.55;4.72;;;;;;;36.81;27.17;100230.89;1677280;85;21146;-82
2021/06/24 09:02:17;;;;;;;30.17;3.77;;;;;;;36.79;27.90;100220.67;1711414;83;21050;-81
2021/06/24 09:04:46;;;;;;;26.70;4.28;;;;;;;36.72;26.24;100226.77;1711199;83;21089;-76
2021/06/24 09:07:21;;;;;;;34.30;3.80;;;;;;;36.49;26.54;100225.97;1708216;83;21057;-75
2021/06/24 09:09:53;;;;;;;29.45;4.00;;;;;;;36.21;26.92;100223.69;1707523;83;21057;-75
2021/06/24 09:12:21;;;;;;;38.75;4.65;;;;;;;36.06;27.91;100223.45;1711012;83;21472;-76
2021/06/24 09:14:53;;;;;;;25.27;4.10;;;;;;;35.96;28.07;100223.12;1714008;83;21108;-76
2021/06/24 09:17:42;;;;;;;30.90;4.28;;;;;;;35.89;27.79;100223.66;1724205;83;21100;-76
2021/06/24 09:20:27;;;;;;;16.07;4.65;;;;;;;35.83;27.53;100230.05;1724864;83;21044;-76
2021/06/24 09:23:16;;;;;;;26.15;3.95;;;;;;;35.69;26.74;100226.55;1724724;83;21088;-75
2021/06/24 09:26:07;;;;;;;26.40;3.20;;;;;;;35.58;26.67;100224.47;1723576;82;21538;-75
2021/06/24 09:28:50;;;;;;;29.07;3.47;;;;;;;35.51;26.64;100221.76;1719489;83;21065;-75
2021/06/24 09:31:30;;;;;;;24.20;4.12;;;;;;;35.45;27.59;100218.52;1724046;82;21064;-75
2021/06/24 09:34:07;;;;;;;24.15;3.42;;;;;;;35.42;27.48;100217.59;1723628;82;21010;-76
2021/06/24 09:36:42;;;;;;;28.98;4.05;;;;;;;35.55;27.58;100209.31;1718613;81;21132;-76
2021/06/24 09:39:29;;;;;;;34.98;5.25;;;;;;;35.75;28.02;100209.75;1715313;83;22156;-75
2021/06/24 09:42:08;;;;;;;33.85;4.95;;;;;;;36.06;30.61;100199.33;1724875;83;21009;-78
2021/06/24 09:44:37;;;;;;;42.45;6.08;;;;;;;36.32;29.95;100196.37;1724047;83;22267;-79
2021/06/24 09:47:31;;;;;;;25.02;4.37;;;;;;;36.68;32.19;100202.21;1725004;83;21084;-81
2021/06/24 09:50:00;;;;;;;;;;;;;;;36.89;30.49;100200.92;1726943;82;21642;-77
2021/06/24 09:52:27;;;;;;;32.40;4.22;;;;;;;37.05;29.32;100204.97;1723207;83;21245;-84
2021/06/24 09:55:07;;;;;;;33.70;5.72;;;;;;;36.85;30.20;100203.27;1722349;83;21069;-84
2021/06/24 09:57:36;;;;;;;;;;;;;;;36.72;30.90;100206.19;1725586;83;21036;-83
2021/06/24 10:00:24;;;;;;;30.25;4.72;;;;;;;36.43;31.54;100201.67;1724162;83;20238;-83
2021/06/24 10:03:08;;;;;;;29.77;4.60;;;;;;;36.14;30.96;100199.06;1721747;83;21077;-83
2021/06/24 10:05:36;;;;;;;32.50;4.05;;;;;;;36.04;30.32;100200.08;1722581;83;21138;-81
2021/06/24 10:08:05;;;;;;;26.27;5.00;;;;;;;36.00;30.59;100196.09;1722530;83;21103;-82
2021/06/24 10:10:33;;;;;;;37.63;4.00;;;;;;;36.17;29.90;100196.41;1723733;83;21124;-80
2021/06/24 10:13:01;;;;;;;30.12;4.17;;;;;;;36.53;28.87;100197.87;1723116;83;21065;-80
2021/06/24 10:15:29;;;;;;;31.62;3.92;;;;;;;36.82;27.48;100192.77;1713417;82;21039;-81
2021/06/24 10:17:56;;;;;;;20.88;3.60;;;;;;;37.09;27.83;100189.77;1711433;83;21356;-78
2021/06/24 10:20:26;;;;;;;21.17;3.90;;;;;;;37.42;27.01;100187.11;1713591;82;21093;-78
2021/06/24 10:22:57;;;;;;;;;;;;;;;37.88;27.17;100188.38;1709390;83;21065;-78
2021/06/24 10:25:24;;;;;;;31.02;3.98;;;;;;;38.40;25.44;100179.81;1707815;83;20177;-76
2021/06/24 10:27:54;;;;;;;23.65;3.45;;;;;;;38.74;24.84;100179.20;1710151;83;21066;-81
2021/06/24 10:30:23;;;;;;;18.52;3.70;;;;;;;38.99;24.55;100180.33;1711456;83;21140;-76
2021/06/24 10:33:08;;;;;;;29.98;3.72;;;;;;;39.35;24.37;100182.45;1711213;83;21091;-79
2021/06/24 10:35:39;;;;;;;24.32;3.80;;;;;;;39.64;23.00;100170.36;1707782;82;21074;-74
2021/06/24 10:38:07;;;;;;;26.00;3.22;;;;;;;39.87;22.83;100177.38;1711664;83;21117;-79
2021/06/24 10:40:39;;;;;;;23.62;3.80;;;;;;;40.01;21.66;100170.45;1709478;83;21021;-83
2021/06/24 10:43:11;;;;;;;21.50;3.17;;;;;;;39.99;21.48;100168.52;1709334;83;21149;-79
2021/06/24 10:45:38;;;;;;;21.52;3.37;;;;;;;40.07;21.60;100170.84;1709361;83;21064;-78
2021/06/24 10:48:30;;;;;;;23.45;3.02;;;;;;;40.03;21.64;100169.66;1708562;83;21059;-77
2021/06/24 10:51:10;;;;;;;21.90;3.25;;;;;;;39.97;21.24;100173.44;1709428;83;21127;-75
2021/06/24 10:53:45;;;;;;;18.48;3.00;;;;;;;40.05;20.82;100177.14;1706038;83;21073;-75
2021/06/24 10:56:35;;;;;;;21.35;3.58;;;;;;;39.93;20.85;100168.12;1707920;82;21801;-80
2021/06/24 10:59:10;;;;;;;25.72;3.58;;;;;;;39.83;21.83;100176.52;1672408;85;21221;-75
2021/06/24 11:01:45;;;;;;;35.15;3.70;;;;;;;39.65;21.84;100162.92;1701008;83;21053;-80
2021/06/24 11:04:38;;;;;;;24.43;3.40;;;;;;;39.58;22.05;100171.34;1709585;83;21089;-75
2021/06/24 11:07:19;;;;;;;18.92;3.65;;;;;;;39.67;21.70;100160.77;1707831;83;21113;-77
2021/06/24 11:10:17;;;;;;;19.45;3.62;;;;;;;39.88;21.72;100157.02;1707989;82;21647;-77
2021/06/24 11:13:01;;;;;;;21.10;4.55;;;;;;;39.99;21.35;100156.11;1706010;83;21636;-77
2021/06/24 11:15:51;;;;;;;27.35;4.12;;;;;;;39.84;21.58;100150.61;1709272;83;21113;-79
2021/06/24 11:18:46;;;;;;;25.43;3.20;;;;;;;39.57;22.23;100156.42;1712141;82;21579;-77
2021/06/24 11:21:30;;;;;;;25.17;3.50;;;;;;;39.35;22.37;100150.22;1710327;83;21112;-79
2021/06/24 11:24:01;;;;;;;18.10;3.67;;;;;;;39.27;23.37;100155.28;1700320;83;21189;-77
2021/06/24 11:26:31;;;;;;;18.52;3.42;;;;;;;39.36;22.99;100151.88;1711996;82;21081;-79
2021/06/24 11:29:11;;;;;;;25.23;3.58;;;;;;;39.33;23.22;100157.89;1708344;83;21518;-78
2021/06/24 11:31:44;;;;;;;36.42;4.60;;;;;;;39.38;24.09;100148.92;1712295;82;21045;-77
2021/06/24 11:37:13;;;;;;;29.55;3.87;;;;;;;39.76;23.71;100147.42;1658788;85;21128;-78
2021/06/24 11:39:53;;;;;;;22.22;3.50;;;;;;;39.60;23.54;100143.55;1666952;84;21062;-78